YMJ weather

Moose Jaw Air Vice Marshal C. M. McEwen Airport
Moose Jaw, Saskatchewan, Canada

Public forecast

Using degrees Celsius for public forecast. Weather courtesy of forecast.io.

METAR (pilot weather report)

Retrieved 2019/07/18 10:00 UTC (28 minutes ago):

CYMJ 181000Z 03003KT 15SM BKN100 OVC280 15/13 A2957 RMK AC6CI2 FST OBS SLP013

TAF (pilot weather forecast)

Forecast is more than 12 hours old.

Retrieved 2019/07/17 18:33 UTC (16 hours ago):

TAF CYMJ 171731Z 1718/1806 27010KT P6SM BKN025 BKN250 FM171900 27012G22KT P6SM SCT050 BKN250 PROB30 1720/1801 VRB15G25KT 5SM TSRA BKN040CB BKN250 FM180200 VRB03KT P6SM SCT060 BKN240 TEMPO 1802/1806 P6SM -SHRA OVC060 RMK NXT FCST BY 180000Z